WXM80 ListenWXM80 Stop

You find our weather info also at:

UK Metoffice

WeatherCloud

Weather Underground

Northeastern Weather Network

AWEKAS

Citizen Weather Observer Program (CWOP)

HAMweather, WeatherForYou, PWS Weather


Weather Underground History page Text

Daily Summary for April 29, 2017 Units:  Both    English   Metric
« Previous Day
Next Day »
Daily Weekly Monthly Yearly Custom
  High: Low: Average:
Temperature: 85.6 °F /  29.8 °C 63.4 °F /  17.4 °C 73.5 °F /  23.1 °C
Dew Point: 68.8 °F /  20.4 °C 50.9 °F /  10.5 °C 61.6 °F /  16.4 °C
Humidity: 89 % 49 % 67 %
Wind Speed: 10.1 mph /  16.3 km/h - 3 mph /  4.8 km/h
Wind Gust: 17.3 mph /  27.8 km/h - -
Wind:- - WSW
Pressure: 30.07 in /  1018.2 hPa 29.87 in /  1011.4 hPa -
Precipitation: 0.00 in /  0 mm    
Historical Graphs
 
 
Tabular Data for April 29, 2017
Time Temperature Dew Point Pressure Wind Wind Speed Wind Gust Humidity Rainfall Rate (Hourly)
00:04 65.8 °F /  18.8 °C 51.1 °F /  10.6 °C 29.99 in /  1015.5 hPa WSW 1.3 mph /  2.1 km/h 4.0 mph /  6.4 km/h 59 % 0.00 in /  0 mm
00:09 65.8 °F /  18.8 °C 51.1 °F /  10.6 °C 30.00 in /  1015.8 hPa WSW 0.6 mph /  1 km/h 2.3 mph /  3.7 km/h 59 % 0.00 in /  0 mm
00:14 66.1 °F /  18.9 °C 50.9 °F /  10.5 °C 30.00 in /  1015.8 hPa West 3.5 mph /  5.6 km/h 8.1 mph /  13 km/h 58 % 0.00 in /  0 mm
00:19 66.5 °F /  19.2 °C 51.3 °F /  10.7 °C 30.00 in /  1015.8 hPa WSW 2.9 mph /  4.7 km/h 5.8 mph /  9.3 km/h 58 % 0.00 in /  0 mm
00:29 66.9 °F /  19.4 °C 51.6 °F /  10.9 °C 30.00 in /  1015.8 hPa SSW 1.3 mph /  2.1 km/h 6.0 mph /  9.7 km/h 58 % 0.00 in /  0 mm
00:34 67.1 °F /  19.5 °C 51.4 °F /  10.8 °C 30.00 in /  1015.8 hPa SW 2.3 mph /  3.7 km/h 3.5 mph /  5.6 km/h 57 % 0.00 in /  0 mm
00:39 67.2 °F /  19.6 °C 51.9 °F /  11.1 °C 30.00 in /  1015.8 hPa SW 1.5 mph /  2.4 km/h 2.3 mph /  3.7 km/h 58 % 0.00 in /  0 mm
00:42 67.2 °F /  19.6 °C 51.9 °F /  11.1 °C 30.00 in /  1015.8 hPa SW 2.6 mph /  4.2 km/h 5.8 mph /  9.3 km/h 58 % 0.00 in /  0 mm
00:47 67.2 °F /  19.6 °C 51.4 °F /  10.8 °C 30.00 in /  1015.8 hPa SSW 2.8 mph /  4.5 km/h 6.9 mph /  11.1 km/h 57 % 0.00 in /  0 mm
00:52 67.3 °F /  19.6 °C 52.5 °F /  11.4 °C 30.01 in /  1016.1 hPa SW 2.6 mph /  4.2 km/h 6.0 mph /  9.7 km/h 59 % 0.00 in /  0 mm
00:57 67.3 °F /  19.6 °C 53.4 °F /  11.9 °C 30.00 in /  1015.8 hPa SW 2.4 mph /  3.9 km/h 4.6 mph /  7.4 km/h 61 % 0.00 in /  0 mm
01:02 67.4 °F /  19.7 °C 53.9 °F /  12.2 °C 30.00 in /  1015.8 hPa WSW 3.2 mph /  5.1 km/h 6.9 mph /  11.1 km/h 62 % 0.00 in /  0 mm
01:07 67.5 °F /  19.7 °C 54.5 °F /  12.5 °C 30.01 in /  1016.1 hPa WSW 3.0 mph /  4.8 km/h 5.8 mph /  9.3 km/h 63 % 0.00 in /  0 mm
01:12 67.6 °F /  19.8 °C 55.0 °F /  12.8 °C 30.01 in /  1016.1 hPa WSW 1.2 mph /  1.9 km/h 5.8 mph /  9.3 km/h 64 % 0.00 in /  0 mm
01:18 67.6 °F /  19.8 °C 55.0 °F /  12.8 °C 30.00 in /  1015.8 hPa SW 1.2 mph /  1.9 km/h 3.5 mph /  5.6 km/h 64 % 0.00 in /  0 mm
01:23 67.5 °F /  19.7 °C 55.3 °F /  12.9 °C 30.00 in /  1015.8 hPa SW 0.9 mph /  1.4 km/h 3.5 mph /  5.6 km/h 65 % 0.00 in /  0 mm
01:28 67.5 °F /  19.7 °C 55.3 °F /  12.9 °C 29.99 in /  1015.5 hPa SW 1.2 mph /  1.9 km/h 2.3 mph /  3.7 km/h 65 % 0.00 in /  0 mm
01:33 67.5 °F /  19.7 °C 55.7 °F /  13.2 °C 29.99 in /  1015.5 hPa SSW 1.2 mph /  1.9 km/h 3.5 mph /  5.6 km/h 66 % 0.00 in /  0 mm
01:38 67.5 °F /  19.7 °C 56.2 °F /  13.4 °C 30.00 in /  1015.8 hPa SSW 2.1 mph /  3.4 km/h 4.6 mph /  7.4 km/h 67 % 0.00 in /  0 mm
01:43 67.5 °F /  19.7 °C 56.2 °F /  13.4 °C 30.00 in /  1015.8 hPa West 1.9 mph /  3.1 km/h 3.5 mph /  5.6 km/h 67 % 0.00 in /  0 mm
01:48 67.5 °F /  19.7 °C 56.6 °F /  13.7 °C 30.00 in /  1015.8 hPa SW 1.1 mph /  1.8 km/h 4.0 mph /  6.4 km/h 68 % 0.00 in /  0 mm
01:53 67.6 °F /  19.8 °C 56.7 °F /  13.7 °C 29.99 in /  1015.5 hPa WSW 0.8 mph /  1.3 km/h 2.3 mph /  3.7 km/h 68 % 0.00 in /  0 mm
01:58 67.7 °F /  19.8 °C 57.2 °F /  14 °C 29.99 in /  1015.5 hPa WSW 2.2 mph /  3.5 km/h 3.5 mph /  5.6 km/h 69 % 0.00 in /  0 mm
02:03 67.8 °F /  19.9 °C 57.7 °F /  14.3 °C 29.99 in /  1015.5 hPa WSW 1.1 mph /  1.8 km/h 3.5 mph /  5.6 km/h 70 % 0.00 in /  0 mm
02:09 68.0 °F /  20 °C 57.8 °F /  14.3 °C 29.99 in /  1015.5 hPa WSW 0.6 mph /  1 km/h 2.3 mph /  3.7 km/h 70 % 0.00 in /  0 mm
02:14 68.1 °F /  20.1 °C 57.9 °F /  14.4 °C 29.98 in /  1015.1 hPa WSW 1.0 mph /  1.6 km/h 2.0 mph /  3.2 km/h 70 % 0.00 in /  0 mm
02:19 68.2 °F /  20.1 °C 58.4 °F /  14.7 °C 29.98 in /  1015.1 hPa WSW 1.3 mph /  2.1 km/h 3.5 mph /  5.6 km/h 71 % 0.00 in /  0 mm
02:24 68.3 °F /  20.2 °C 58.5 °F /  14.7 °C 29.98 in /  1015.1 hPa WSW 1.2 mph /  1.9 km/h 2.3 mph /  3.7 km/h 71 % 0.00 in /  0 mm
02:29 68.4 °F /  20.2 °C 58.6 °F /  14.8 °C 29.98 in /  1015.1 hPa WSW 1.5 mph /  2.4 km/h 3.5 mph /  5.6 km/h 71 % 0.00 in /  0 mm
02:34 68.5 °F /  20.3 °C 59.1 °F /  15.1 °C 29.99 in /  1015.5 hPa WSW 0.9 mph /  1.4 km/h 3.5 mph /  5.6 km/h 72 % 0.00 in /  0 mm
02:39 68.5 °F /  20.3 °C 59.1 °F /  15.1 °C 29.99 in /  1015.5 hPa SW 1.9 mph /  3.1 km/h 4.6 mph /  7.4 km/h 72 % 0.00 in /  0 mm
02:44 68.5 °F /  20.3 °C 59.1 °F /  15.1 °C 30.00 in /  1015.8 hPa SW 2.0 mph /  3.2 km/h 3.5 mph /  5.6 km/h 72 % 0.00 in /  0 mm
02:49 68.5 °F /  20.3 °C 59.1 °F /  15.1 °C 30.00 in /  1015.8 hPa WSW 0.4 mph /  0.6 km/h 3.5 mph /  5.6 km/h 72 % 0.00 in /  0 mm
02:54 68.5 °F /  20.3 °C 59.1 °F /  15.1 °C 29.99 in /  1015.5 hPa SW 0.4 mph /  0.6 km/h 1.2 mph /  1.9 km/h 72 % 0.00 in /  0 mm
02:59 68.5 °F /  20.3 °C 59.1 °F /  15.1 °C 29.98 in /  1015.1 hPa SW 0.6 mph /  1 km/h 2.3 mph /  3.7 km/h 72 % 0.00 in /  0 mm
03:04 68.5 °F /  20.3 °C 59.1 °F /  15.1 °C 29.97 in /  1014.8 hPa Calm     72 % 0.00 in /  0 mm
03:09 68.5 °F /  20.3 °C 59.5 °F /  15.3 °C 29.96 in /  1014.4 hPa Calm     73 % 0.00 in /  0 mm
03:15 68.4 °F /  20.2 °C 60.2 °F /  15.7 °C 29.97 in /  1014.8 hPa SW 0.5 mph /  0.8 km/h 2.3 mph /  3.7 km/h 75 % 0.00 in /  0 mm
03:20 68.3 °F /  20.2 °C 59.7 °F /  15.4 °C 29.98 in /  1015.1 hPa SW 1.2 mph /  1.9 km/h 3.5 mph /  5.6 km/h 74 % 0.00 in /  0 mm
03:25 68.1 °F /  20.1 °C 59.5 °F /  15.3 °C 29.98 in /  1015.1 hPa Calm   1.2 mph /  1.9 km/h 74 % 0.00 in /  0 mm
03:30 67.9 °F /  19.9 °C 59.7 °F /  15.4 °C 29.98 in /  1015.1 hPa SW 0.1 mph /  0.2 km/h 1.2 mph /  1.9 km/h 75 % 0.00 in /  0 mm
03:35 67.7 °F /  19.8 °C 59.5 °F /  15.3 °C 29.98 in /  1015.1 hPa SW 0.8 mph /  1.3 km/h 2.3 mph /  3.7 km/h 75 % 0.00 in /  0 mm
03:40 67.6 °F /  19.8 °C 59.8 °F /  15.4 °C 29.99 in /  1015.5 hPa SW 1.3 mph /  2.1 km/h 2.3 mph /  3.7 km/h 76 % 0.00 in /  0 mm
03:45 67.4 °F /  19.7 °C 59.6 °F /  15.3 °C 29.99 in /  1015.5 hPa Calm   2.3 mph /  3.7 km/h 76 % 0.00 in /  0 mm
03:50 67.2 °F /  19.6 °C 59.7 °F /  15.4 °C 29.98 in /  1015.1 hPa SW 0.1 mph /  0.2 km/h 1.2 mph /  1.9 km/h 77 % 0.00 in /  0 mm
03:55 67.1 °F /  19.5 °C 59.6 °F /  15.3 °C 29.98 in /  1015.1 hPa Calm     77 % 0.00 in /  0 mm
04:00 67.1 °F /  19.5 °C 59.6 °F /  15.3 °C 29.98 in /  1015.1 hPa SW 1.7 mph /  2.7 km/h 3.5 mph /  5.6 km/h 77 % 0.00 in /  0 mm
04:03 67.0 °F /  19.4 °C 59.9 °F /  15.5 °C 29.98 in /  1015.1 hPa SW 0.7 mph /  1.1 km/h 2.3 mph /  3.7 km/h 78 % 0.00 in /  0 mm
04:08 67.0 °F /  19.4 °C 60.3 °F /  15.7 °C 29.98 in /  1015.1 hPa SSW 1.7 mph /  2.7 km/h 3.5 mph /  5.6 km/h 79 % 0.00 in /  0 mm
04:13 66.9 °F /  19.4 °C 60.2 °F /  15.7 °C 29.98 in /  1015.1 hPa SSW 1.4 mph /  2.3 km/h 3.5 mph /  5.6 km/h 79 % 0.00 in /  0 mm
04:18 66.8 °F /  19.3 °C 60.1 °F /  15.6 °C 29.98 in /  1015.1 hPa SW 2.2 mph /  3.5 km/h 3.5 mph /  5.6 km/h 79 % 0.00 in /  0 mm
04:23 66.7 °F /  19.3 °C 60.0 °F /  15.6 °C 29.98 in /  1015.1 hPa SW 1.1 mph /  1.8 km/h 3.0 mph /  4.8 km/h 79 % 0.00 in /  0 mm
04:28 66.7 °F /  19.3 °C 60.3 °F /  15.7 °C 29.98 in /  1015.1 hPa SW 1.5 mph /  2.4 km/h 3.5 mph /  5.6 km/h 80 % 0.00 in /  0 mm
04:33 66.6 °F /  19.2 °C 60.2 °F /  15.7 °C 29.97 in /  1014.8 hPa Calm     80 % 0.00 in /  0 mm
04:35 66.6 °F /  19.2 °C 60.2 °F /  15.7 °C 29.96 in /  1014.4 hPa SW 0.1 mph /  0.2 km/h 2.3 mph /  3.7 km/h 80 % 0.00 in /  0 mm
04:40 66.6 °F /  19.2 °C 60.6 °F /  15.9 °C 29.96 in /  1014.4 hPa Calm   1.2 mph /  1.9 km/h 81 % 0.00 in /  0 mm
04:46 66.6 °F /  19.2 °C 60.6 °F /  15.9 °C 29.96 in /  1014.4 hPa SSW 0.5 mph /  0.8 km/h 1.2 mph /  1.9 km/h 81 % 0.00 in /  0 mm
04:51 66.6 °F /  19.2 °C 60.9 °F /  16.1 °C 29.96 in /  1014.4 hPa SSW 1.0 mph /  1.6 km/h 2.0 mph /  3.2 km/h 82 % 0.00 in /  0 mm
04:56 66.6 °F /  19.2 °C 60.9 °F /  16.1 °C 29.96 in /  1014.4 hPa Calm   3.0 mph /  4.8 km/h 82 % 0.00 in /  0 mm
05:01 66.6 °F /  19.2 °C 60.9 °F /  16.1 °C 29.95 in /  1014.1 hPa Calm     82 % 0.00 in /  0 mm
05:06 66.6 °F /  19.2 °C 60.9 °F /  16.1 °C 29.94 in /  1013.8 hPa Calm   1.0 mph /  1.6 km/h 82 % 0.00 in /  0 mm
05:11 66.6 °F /  19.2 °C 60.9 °F /  16.1 °C 29.94 in /  1013.8 hPa Calm   1.0 mph /  1.6 km/h 82 % 0.00 in /  0 mm
05:16 66.5 °F /  19.2 °C 61.2 °F /  16.2 °C 29.94 in /  1013.8 hPa Calm     83 % 0.00 in /  0 mm
05:21 66.3 °F /  19.1 °C 60.7 °F /  15.9 °C 29.93 in /  1013.4 hPa Calm     82 % 0.00 in /  0 mm
05:26 66.3 °F /  19.1 °C 61.0 °F /  16.1 °C 29.94 in /  1013.8 hPa Calm   2.0 mph /  3.2 km/h 83 % 0.00 in /  0 mm
05:31 66.1 °F /  18.9 °C 60.8 °F /  16 °C 29.94 in /  1013.8 hPa Calm   2.0 mph /  3.2 km/h 83 % 0.00 in /  0 mm
05:36 66.0 °F /  18.9 °C 60.7 °F /  15.9 °C 29.95 in /  1014.1 hPa SSW 1.0 mph /  1.6 km/h 2.0 mph /  3.2 km/h 83 % 0.00 in /  0 mm
05:41 65.8 °F /  18.8 °C 60.5 °F /  15.8 °C 29.95 in /  1014.1 hPa SSW 2.0 mph /  3.2 km/h 4.0 mph /  6.4 km/h 83 % 0.00 in /  0 mm
05:46 65.7 °F /  18.7 °C 60.4 °F /  15.8 °C 29.95 in /  1014.1 hPa SSW 1.0 mph /  1.6 km/h 3.0 mph /  4.8 km/h 83 % 0.00 in /  0 mm
05:51 65.6 °F /  18.7 °C 60.3 °F /  15.7 °C 29.94 in /  1013.8 hPa SSW 1.0 mph /  1.6 km/h 3.0 mph /  4.8 km/h 83 % 0.00 in /  0 mm
05:56 65.6 °F /  18.7 °C 60.6 °F /  15.9 °C 29.93 in /  1013.4 hPa Calm     84 % 0.00 in /  0 mm
06:01 65.6 °F /  18.7 °C 60.6 °F /  15.9 °C 29.92 in /  1013.1 hPa Calm   1.2 mph /  1.9 km/h 84 % 0.00 in /  0 mm
06:06 65.5 °F /  18.6 °C 60.9 °F /  16.1 °C 29.91 in /  1012.8 hPa Calm   2.0 mph /  3.2 km/h 85 % 0.00 in /  0 mm
06:11 65.5 °F /  18.6 °C 60.9 °F /  16.1 °C 29.92 in /  1013.1 hPa Calm   2.0 mph /  3.2 km/h 85 % 0.00 in /  0 mm
06:16 65.6 °F /  18.7 °C 61.3 °F /  16.3 °C 29.94 in /  1013.8 hPa SSW 2.2 mph /  3.5 km/h 4.6 mph /  7.4 km/h 86 % 0.00 in /  0 mm
06:21 65.5 °F /  18.6 °C 61.2 °F /  16.2 °C 29.94 in /  1013.8 hPa SSW 3.0 mph /  4.8 km/h 6.0 mph /  9.7 km/h 86 % 0.00 in /  0 mm
06:26 65.4 °F /  18.6 °C 61.1 °F /  16.2 °C 29.94 in /  1013.8 hPa South 1.0 mph /  1.6 km/h 5.0 mph /  8 km/h 86 % 0.00 in /  0 mm
06:31 65.3 °F /  18.5 °C 61.3 °F /  16.3 °C 29.93 in /  1013.4 hPa South 1.0 mph /  1.6 km/h 4.0 mph /  6.4 km/h 87 % 0.00 in /  0 mm
06:32 65.2 °F /  18.4 °C 61.2 °F /  16.2 °C 29.93 in /  1013.4 hPa SSW 2.2 mph /  3.5 km/h 4.0 mph /  6.4 km/h 87 % 0.00 in /  0 mm
06:37 65.1 °F /  18.4 °C 61.1 °F /  16.2 °C 29.93 in /  1013.4 hPa SSW 0.4 mph /  0.6 km/h 2.3 mph /  3.7 km/h 87 % 0.00 in /  0 mm
06:42 65.0 °F /  18.3 °C 61.0 °F /  16.1 °C 29.93 in /  1013.4 hPa South 0.2 mph /  0.3 km/h 1.2 mph /  1.9 km/h 87 % 0.00 in /  0 mm
06:47 64.9 °F /  18.3 °C 60.9 °F /  16.1 °C 29.94 in /  1013.8 hPa South 0.5 mph /  0.8 km/h 1.2 mph /  1.9 km/h 87 % 0.00 in /  0 mm
06:52 64.8 °F /  18.2 °C 61.2 °F /  16.2 °C 29.94 in /  1013.8 hPa South 1.1 mph /  1.8 km/h 3.0 mph /  4.8 km/h 88 % 0.00 in /  0 mm
06:57 64.7 °F /  18.2 °C 61.1 °F /  16.2 °C 29.94 in /  1013.8 hPa WSW 2.4 mph /  3.9 km/h 5.8 mph /  9.3 km/h 88 % 0.00 in /  0 mm
07:02 64.7 °F /  18.2 °C 61.4 °F /  16.3 °C 29.94 in /  1013.8 hPa Calm   1.2 mph /  1.9 km/h 89 % 0.00 in /  0 mm
07:07 64.5 °F /  18.1 °C 60.5 °F /  15.8 °C 29.95 in /  1014.1 hPa NNW 2.4 mph /  3.9 km/h 5.8 mph /  9.3 km/h 87 % 0.00 in /  0 mm
07:12 64.2 °F /  17.9 °C 60.2 °F /  15.7 °C 29.95 in /  1014.1 hPa WNW 0.1 mph /  0.2 km/h 1.2 mph /  1.9 km/h 87 % 0.00 in /  0 mm
07:17 64.1 °F /  17.8 °C 60.2 °F /  15.7 °C 29.94 in /  1013.8 hPa WNW 0.6 mph /  1 km/h 2.3 mph /  3.7 km/h 87 % 0.00 in /  0 mm
07:23 63.9 °F /  17.7 °C 60.0 °F /  15.6 °C 29.94 in /  1013.8 hPa NNE 1.9 mph /  3.1 km/h 5.0 mph /  8 km/h 87 % 0.00 in /  0 mm
07:28 63.6 °F /  17.6 °C 59.0 °F /  15 °C 29.94 in /  1013.8 hPa NNW 1.8 mph /  2.9 km/h 4.6 mph /  7.4 km/h 85 % 0.00 in /  0 mm
07:33 63.5 °F /  17.5 °C 58.9 °F /  14.9 °C 29.94 in /  1013.8 hPa North 0.7 mph /  1.1 km/h 3.5 mph /  5.6 km/h 85 % 0.00 in /  0 mm
07:38 63.4 °F /  17.4 °C 59.1 °F /  15.1 °C 29.94 in /  1013.8 hPa NW 1.2 mph /  1.9 km/h 3.5 mph /  5.6 km/h 86 % 0.00 in /  0 mm
07:43 63.4 °F /  17.4 °C 59.1 °F /  15.1 °C 29.94 in /  1013.8 hPa NW 0.4 mph /  0.6 km/h 2.3 mph /  3.7 km/h 86 % 0.00 in /  0 mm
07:44 63.4 °F /  17.4 °C 59.1 °F /  15.1 °C 29.93 in /  1013.4 hPa Calm     86 % 0.00 in /  0 mm
07:49 63.5 °F /  17.5 °C 59.6 °F /  15.3 °C 29.94 in /  1013.8 hPa Calm     87 % 0.00 in /  0 mm
07:54 63.8 °F /  17.7 °C 59.9 °F /  15.5 °C 29.94 in /  1013.8 hPa NW 0.1 mph /  0.2 km/h 1.2 mph /  1.9 km/h 87 % 0.00 in /  0 mm
07:59 64.1 °F /  17.8 °C 60.5 °F /  15.8 °C 29.94 in /  1013.8 hPa NW 0.4 mph /  0.6 km/h 1.2 mph /  1.9 km/h 88 % 0.00 in /  0 mm
08:04 64.4 °F /  18 °C 60.4 °F /  15.8 °C 29.94 in /  1013.8 hPa Calm   1.2 mph /  1.9 km/h 87 % 0.00 in /  0 mm
08:09 64.5 °F /  18.1 °C 60.2 °F /  15.7 °C 29.94 in /  1013.8 hPa Calm     86 % 0.00 in /  0 mm
08:14 64.7 °F /  18.2 °C 60.4 °F /  15.8 °C 29.94 in /  1013.8 hPa Calm     86 % 0.00 in /  0 mm
08:19 64.8 °F /  18.2 °C 60.2 °F /  15.7 °C 29.94 in /  1013.8 hPa Calm   1.2 mph /  1.9 km/h 85 % 0.00 in /  0 mm
08:25 65.0 °F /  18.3 °C 60.7 °F /  15.9 °C 29.94 in /  1013.8 hPa Calm     86 % 0.00 in /  0 mm
08:30 65.2 °F /  18.4 °C 61.2 °F /  16.2 °C 29.94 in /  1013.8 hPa Calm     87 % 0.00 in /  0 mm
08:35 65.4 °F /  18.6 °C 61.4 °F /  16.3 °C 29.94 in /  1013.8 hPa Calm   3.5 mph /  5.6 km/h 87 % 0.00 in /  0 mm
08:40 65.7 °F /  18.7 °C 61.7 °F /  16.5 °C 29.95 in /  1014.1 hPa East 0.3 mph /  0.5 km/h 1.2 mph /  1.9 km/h 87 % 0.00 in /  0 mm
08:45 66.1 °F /  18.9 °C 62.4 °F /  16.9 °C 29.95 in /  1014.1 hPa Calm   2.3 mph /  3.7 km/h 88 % 0.00 in /  0 mm
08:50 66.5 °F /  19.2 °C 62.8 °F /  17.1 °C 29.94 in /  1013.8 hPa SE 1.7 mph /  2.7 km/h 3.5 mph /  5.6 km/h 88 % 0.00 in /  0 mm
08:55 67.1 °F /  19.5 °C 63.4 °F /  17.4 °C 29.95 in /  1014.1 hPa SSE 0.4 mph /  0.6 km/h 2.3 mph /  3.7 km/h 88 % 0.00 in /  0 mm
09:00 67.8 °F /  19.9 °C 64.1 °F /  17.8 °C 29.96 in /  1014.4 hPa SSW 1.3 mph /  2.1 km/h 3.5 mph /  5.6 km/h 88 % 0.00 in /  0 mm
09:05 68.3 °F /  20.2 °C 64.6 °F /  18.1 °C 29.97 in /  1014.8 hPa SW 1.8 mph /  2.9 km/h 4.6 mph /  7.4 km/h 88 % 0.00 in /  0 mm
09:10 68.6 °F /  20.3 °C 64.6 °F /  18.1 °C 29.97 in /  1014.8 hPa SW 4.8 mph /  7.7 km/h 6.9 mph /  11.1 km/h 87 % 0.00 in /  0 mm
09:15 69.0 °F /  20.6 °C 65.0 °F /  18.3 °C 29.97 in /  1014.8 hPa South 0.8 mph /  1.3 km/h 4.0 mph /  6.4 km/h 87 % 0.00 in /  0 mm
09:20 69.6 °F /  20.9 °C 65.6 °F /  18.7 °C 29.97 in /  1014.8 hPa SSW 1.9 mph /  3.1 km/h 3.5 mph /  5.6 km/h 87 % 0.00 in /  0 mm
09:26 70.2 °F /  21.2 °C 65.8 °F /  18.8 °C 29.98 in /  1015.1 hPa SSW 1.0 mph /  1.6 km/h 7.0 mph /  11.3 km/h 86 % 0.00 in /  0 mm
09:31 71.0 °F /  21.7 °C 65.9 °F /  18.8 °C 29.98 in /  1015.1 hPa SSW 3.0 mph /  4.8 km/h 12.0 mph /  19.3 km/h 84 % 0.00 in /  0 mm
09:36 71.8 °F /  22.1 °C 66.3 °F /  19.1 °C 29.98 in /  1015.1 hPa SSW 5.0 mph /  8 km/h 8.0 mph /  12.9 km/h 83 % 0.00 in /  0 mm
09:41 72.3 °F /  22.4 °C 66.1 °F /  18.9 °C 29.98 in /  1015.1 hPa SSW 7.4 mph /  11.9 km/h 10.4 mph /  16.7 km/h 81 % 0.00 in /  0 mm
09:46 72.5 °F /  22.5 °C 66.0 °F /  18.9 °C 29.97 in /  1014.8 hPa SSW 3.5 mph /  5.6 km/h 7.0 mph /  11.3 km/h 80 % 0.00 in /  0 mm
09:51 72.6 °F /  22.6 °C 65.7 °F /  18.7 °C 29.98 in /  1015.1 hPa SW 5.0 mph /  8 km/h 14.0 mph /  22.5 km/h 79 % 0.00 in /  0 mm
09:56 72.8 °F /  22.7 °C 65.9 °F /  18.8 °C 29.98 in /  1015.1 hPa SW 6.0 mph /  9.7 km/h 12.0 mph /  19.3 km/h 79 % 0.00 in /  0 mm
10:01 73.0 °F /  22.8 °C 65.7 °F /  18.7 °C 29.98 in /  1015.1 hPa SSW 8.0 mph /  12.9 km/h 10.4 mph /  16.7 km/h 78 % 0.00 in /  0 mm
10:06 73.2 °F /  22.9 °C 65.9 °F /  18.8 °C 29.97 in /  1014.8 hPa SW 5.0 mph /  8 km/h 14.0 mph /  22.5 km/h 78 % 0.00 in /  0 mm
10:11 73.5 °F /  23.1 °C 66.2 °F /  19 °C 29.97 in /  1014.8 hPa SW 7.0 mph /  11.3 km/h 12.0 mph /  19.3 km/h 78 % 0.00 in /  0 mm
10:16 73.9 °F /  23.3 °C 66.2 °F /  19 °C 29.97 in /  1014.8 hPa SW 6.0 mph /  9.7 km/h 12.0 mph /  19.3 km/h 77 % 0.00 in /  0 mm
10:20 74.4 °F /  23.6 °C 67.1 °F /  19.5 °C 29.97 in /  1014.8 hPa WSW 5.4 mph /  8.7 km/h 9.2 mph /  14.8 km/h 78 % 0.00 in /  0 mm
10:25 74.8 °F /  23.8 °C 67.1 °F /  19.5 °C 29.97 in /  1014.8 hPa SW 6.8 mph /  10.9 km/h 10.4 mph /  16.7 km/h 77 % 0.00 in /  0 mm
10:31 75.3 °F /  24.1 °C 67.6 °F /  19.8 °C 29.97 in /  1014.8 hPa SW 7.0 mph /  11.3 km/h 12.0 mph /  19.3 km/h 77 % 0.00 in /  0 mm
10:36 75.9 °F /  24.4 °C 67.7 °F /  19.8 °C 29.98 in /  1015.1 hPa SW 5.0 mph /  8 km/h 12.0 mph /  19.3 km/h 76 % 0.00 in /  0 mm
10:41 76.5 °F /  24.7 °C 68.4 °F /  20.2 °C 29.98 in /  1015.1 hPa SW 7.0 mph /  11.3 km/h 14.0 mph /  22.5 km/h 76 % 0.00 in /  0 mm
10:46 77.3 °F /  25.2 °C 67.9 °F /  19.9 °C 29.97 in /  1014.8 hPa WSW 6.0 mph /  9.7 km/h 15.0 mph /  24.1 km/h 73 % 0.00 in /  0 mm
10:51 77.8 °F /  25.4 °C 68.0 °F /  20 °C 29.97 in /  1014.8 hPa West 5.4 mph /  8.7 km/h 7.0 mph /  11.3 km/h 72 % 0.00 in /  0 mm
10:56 78.1 °F /  25.6 °C 67.9 °F /  19.9 °C 29.97 in /  1014.8 hPa SW 5.0 mph /  8 km/h 10.0 mph /  16.1 km/h 71 % 0.00 in /  0 mm
11:01 78.4 °F /  25.8 °C 68.2 °F /  20.1 °C 29.96 in /  1014.4 hPa WNW 3.9 mph /  6.3 km/h 5.8 mph /  9.3 km/h 71 % 0.00 in /  0 mm
11:06 78.7 °F /  25.9 °C 68.1 °F /  20.1 °C 29.96 in /  1014.4 hPa WSW 7.5 mph /  12.1 km/h 11.5 mph /  18.5 km/h 70 % 0.00 in /  0 mm
11:11 79.1 °F /  26.2 °C 68.5 °F /  20.3 °C 29.95 in /  1014.1 hPa WSW 4.1 mph /  6.6 km/h 9.2 mph /  14.8 km/h 70 % 0.00 in /  0 mm
11:16 79.5 °F /  26.4 °C 68.0 °F /  20 °C 29.94 in /  1013.8 hPa SW 5.3 mph /  8.5 km/h 8.1 mph /  13 km/h 68 % 0.00 in /  0 mm
11:21 79.9 °F /  26.6 °C 68.8 °F /  20.4 °C 29.93 in /  1013.4 hPa West 4.9 mph /  7.9 km/h 8.1 mph /  13 km/h 69 % 0.00 in /  0 mm
11:26 80.2 °F /  26.8 °C 68.2 °F /  20.1 °C 29.92 in /  1013.1 hPa WSW 3.3 mph /  5.3 km/h 7.0 mph /  11.3 km/h 67 % 0.00 in /  0 mm
11:31 80.4 °F /  26.9 °C 68.0 °F /  20 °C 29.93 in /  1013.4 hPa NW 3.6 mph /  5.8 km/h 5.8 mph /  9.3 km/h 66 % 0.00 in /  0 mm
11:36 80.3 °F /  26.8 °C 67.9 °F /  19.9 °C 29.90 in /  1012.4 hPa WNW 1.2 mph /  1.9 km/h 3.5 mph /  5.6 km/h 66 % 0.00 in /  0 mm
11:41 80.3 °F /  26.8 °C 67.5 °F /  19.7 °C 29.91 in /  1012.8 hPa WNW 2.1 mph /  3.4 km/h 3.5 mph /  5.6 km/h 65 % 0.00 in /  0 mm
11:46 80.2 °F /  26.8 °C 67.8 °F /  19.9 °C 29.92 in /  1013.1 hPa SW 6.0 mph /  9.7 km/h 9.2 mph /  14.8 km/h 66 % 0.00 in /  0 mm
11:51 80.2 °F /  26.8 °C 67.8 °F /  19.9 °C 29.92 in /  1013.1 hPa WSW 2.2 mph /  3.5 km/h 5.8 mph /  9.3 km/h 66 % 0.00 in /  0 mm
11:56 80.2 °F /  26.8 °C 68.7 °F /  20.4 °C 29.93 in /  1013.4 hPa SSW 2.2 mph /  3.5 km/h 5.0 mph /  8 km/h 68 % 0.00 in /  0 mm
11:57 80.3 °F /  26.8 °C 68.3 °F /  20.2 °C 29.93 in /  1013.4 hPa SSW 4.6 mph /  7.4 km/h 5.8 mph /  9.3 km/h 67 % 0.00 in /  0 mm
12:03 80.3 °F /  26.8 °C 68.3 °F /  20.2 °C 29.92 in /  1013.1 hPa SW 3.6 mph /  5.8 km/h 5.8 mph /  9.3 km/h 67 % 0.00 in /  0 mm
12:08 80.1 °F /  26.7 °C 66.8 °F /  19.3 °C 29.92 in /  1013.1 hPa WSW 5.5 mph /  8.9 km/h 7.0 mph /  11.3 km/h 64 % 0.00 in /  0 mm
12:13 79.9 °F /  26.6 °C 67.1 °F /  19.5 °C 29.92 in /  1013.1 hPa WSW 3.6 mph /  5.8 km/h 8.1 mph /  13 km/h 65 % 0.00 in /  0 mm
12:18 79.9 °F /  26.6 °C 67.5 °F /  19.7 °C 29.92 in /  1013.1 hPa WSW 4.7 mph /  7.6 km/h 8.1 mph /  13 km/h 66 % 0.00 in /  0 mm
12:23 79.8 °F /  26.6 °C 67.4 °F /  19.7 °C 29.92 in /  1013.1 hPa WNW 1.5 mph /  2.4 km/h 3.5 mph /  5.6 km/h 66 % 0.00 in /  0 mm
12:28 79.9 °F /  26.6 °C 67.5 °F /  19.7 °C 29.92 in /  1013.1 hPa SW 4.0 mph /  6.4 km/h 10.4 mph /  16.7 km/h 66 % 0.00 in /  0 mm
12:33 80.0 °F /  26.7 °C 67.2 °F /  19.6 °C 29.91 in /  1012.8 hPa South 2.4 mph /  3.9 km/h 5.8 mph /  9.3 km/h 65 % 0.00 in /  0 mm
12:38 80.2 °F /  26.8 °C 67.4 °F /  19.7 °C 29.91 in /  1012.8 hPa West 0.9 mph /  1.4 km/h 3.5 mph /  5.6 km/h 65 % 0.00 in /  0 mm
12:43 80.7 °F /  27.1 °C 67.4 °F /  19.7 °C 29.90 in /  1012.4 hPa SW 3.5 mph /  5.6 km/h 5.8 mph /  9.3 km/h 64 % 0.00 in /  0 mm
12:48 81.4 °F /  27.4 °C 66.7 °F /  19.3 °C 29.91 in /  1012.8 hPa West 6.6 mph /  10.6 km/h 11.5 mph /  18.5 km/h 61 % 0.00 in /  0 mm
12:53 82.1 °F /  27.8 °C 66.8 °F /  19.3 °C 29.91 in /  1012.8 hPa WSW 8.3 mph /  13.4 km/h 10.4 mph /  16.7 km/h 60 % 0.00 in /  0 mm
12:58 82.6 °F /  28.1 °C 65.8 °F /  18.8 °C 29.91 in /  1012.8 hPa WSW 5.8 mph /  9.3 km/h 11.5 mph /  18.5 km/h 57 % 0.00 in /  0 mm
13:03 83.1 °F /  28.4 °C 67.3 °F /  19.6 °C 29.90 in /  1012.4 hPa WSW 2.1 mph /  3.4 km/h 5.8 mph /  9.3 km/h 59 % 0.00 in /  0 mm
13:09 83.7 °F /  28.7 °C 66.3 °F /  19.1 °C 29.89 in /  1012.1 hPa WNW 4.4 mph /  7.1 km/h 8.1 mph /  13 km/h 56 % 0.00 in /  0 mm
13:14 84.0 °F /  28.9 °C 66.1 °F /  18.9 °C 29.89 in /  1012.1 hPa SSW 4.4 mph /  7.1 km/h 11.5 mph /  18.5 km/h 55 % 0.00 in /  0 mm
13:19 84.3 °F /  29.1 °C 65.8 °F /  18.8 °C 29.89 in /  1012.1 hPa SW 3.8 mph /  6.1 km/h 10.4 mph /  16.7 km/h 54 % 0.00 in /  0 mm
13:24 84.5 °F /  29.2 °C 65.5 °F /  18.6 °C 29.88 in /  1011.7 hPa West 4.1 mph /  6.6 km/h 6.9 mph /  11.1 km/h 53 % 0.00 in /  0 mm
13:29 84.7 °F /  29.3 °C 65.7 °F /  18.7 °C 29.88 in /  1011.7 hPa WSW 2.6 mph /  4.2 km/h 6.0 mph /  9.7 km/h 53 % 0.00 in /  0 mm
13:34 84.9 °F /  29.4 °C 66.4 °F /  19.1 °C 29.88 in /  1011.7 hPa WSW 4.6 mph /  7.4 km/h 8.1 mph /  13 km/h 54 % 0.00 in /  0 mm
13:39 85.1 °F /  29.5 °C 66.6 °F /  19.2 °C 29.87 in /  1011.4 hPa WSW 2.2 mph /  3.5 km/h 4.6 mph /  7.4 km/h 54 % 0.00 in /  0 mm
13:44 85.3 °F /  29.6 °C 65.7 °F /  18.7 °C 29.88 in /  1011.7 hPa West 3.2 mph /  5.1 km/h 6.0 mph /  9.7 km/h 52 % 0.00 in /  0 mm
13:49 85.5 °F /  29.7 °C 65.9 °F /  18.8 °C 29.89 in /  1012.1 hPa West 7.8 mph /  12.6 km/h 12.0 mph /  19.3 km/h 52 % 0.00 in /  0 mm
13:54 85.3 °F /  29.6 °C 65.1 °F /  18.4 °C 29.89 in /  1012.1 hPa WSW 8.1 mph /  13 km/h 15.0 mph /  24.1 km/h 51 % 0.00 in /  0 mm
13:59 84.9 °F /  29.4 °C 65.3 °F /  18.5 °C 29.89 in /  1012.1 hPa WSW 4.4 mph /  7.1 km/h 10.4 mph /  16.7 km/h 52 % 0.00 in /  0 mm
14:05 84.8 °F /  29.3 °C 65.8 °F /  18.8 °C 29.88 in /  1011.7 hPa West 3.8 mph /  6.1 km/h 8.1 mph /  13 km/h 53 % 0.00 in /  0 mm
14:10 84.7 °F /  29.3 °C 65.1 °F /  18.4 °C 29.88 in /  1011.7 hPa WSW 6.3 mph /  10.1 km/h 10.4 mph /  16.7 km/h 52 % 0.00 in /  0 mm
14:15 84.7 °F /  29.3 °C 65.1 °F /  18.4 °C 29.89 in /  1012.1 hPa West 6.6 mph /  10.6 km/h 11.5 mph /  18.5 km/h 52 % 0.00 in /  0 mm
14:20 84.7 °F /  29.3 °C 66.2 °F /  19 °C 29.89 in /  1012.1 hPa WNW 2.1 mph /  3.4 km/h 4.0 mph /  6.4 km/h 54 % 0.00 in /  0 mm
14:25 84.7 °F /  29.3 °C 65.7 °F /  18.7 °C 29.88 in /  1011.7 hPa WSW 5.3 mph /  8.5 km/h 9.2 mph /  14.8 km/h 53 % 0.00 in /  0 mm
14:30 84.8 °F /  29.3 °C 65.8 °F /  18.8 °C 29.88 in /  1011.7 hPa WSW 5.3 mph /  8.5 km/h 9.2 mph /  14.8 km/h 53 % 0.00 in /  0 mm
14:35 85.0 °F /  29.4 °C 66.0 °F /  18.9 °C 29.88 in /  1011.7 hPa WSW 5.5 mph /  8.9 km/h 11.5 mph /  18.5 km/h 53 % 0.00 in /  0 mm
14:40 85.2 °F /  29.6 °C 65.0 °F /  18.3 °C 29.89 in /  1012.1 hPa SW 8.7 mph /  14 km/h 16.1 mph /  25.9 km/h 51 % 0.00 in /  0 mm
14:45 85.4 °F /  29.7 °C 65.2 °F /  18.4 °C 29.90 in /  1012.4 hPa WSW 5.6 mph /  9 km/h 9.2 mph /  14.8 km/h 51 % 0.00 in /  0 mm
14:50 85.6 °F /  29.8 °C 66.0 °F /  18.9 °C 29.90 in /  1012.4 hPa WSW 6.2 mph /  10 km/h 12.7 mph /  20.4 km/h 52 % 0.00 in /  0 mm
14:55 85.5 °F /  29.7 °C 65.3 °F /  18.5 °C 29.90 in /  1012.4 hPa WNW 7.7 mph /  12.4 km/h 13.8 mph /  22.2 km/h 51 % 0.00 in /  0 mm
14:56 85.5 °F /  29.7 °C 65.3 °F /  18.5 °C 29.90 in /  1012.4 hPa West 7.1 mph /  11.4 km/h 11.5 mph /  18.5 km/h 51 % 0.00 in /  0 mm
15:01 85.5 °F /  29.7 °C 65.3 °F /  18.5 °C 29.90 in /  1012.4 hPa SW 8.6 mph /  13.8 km/h 12.7 mph /  20.4 km/h 51 % 0.00 in /  0 mm
15:06 85.2 °F /  29.6 °C 65.6 °F /  18.7 °C 29.90 in /  1012.4 hPa WSW 6.0 mph /  9.7 km/h 10.4 mph /  16.7 km/h 52 % 0.00 in /  0 mm
15:11 85.2 °F /  29.6 °C 65.6 °F /  18.7 °C 29.90 in /  1012.4 hPa SW 6.5 mph /  10.5 km/h 11.5 mph /  18.5 km/h 52 % 0.00 in /  0 mm
15:16 85.3 °F /  29.6 °C 65.7 °F /  18.7 °C 29.90 in /  1012.4 hPa SW 7.0 mph /  11.3 km/h 8.1 mph /  13 km/h 52 % 0.00 in /  0 mm
15:21 85.4 °F /  29.7 °C 65.8 °F /  18.8 °C 29.90 in /  1012.4 hPa WSW 4.8 mph /  7.7 km/h 12.7 mph /  20.4 km/h 52 % 0.00 in /  0 mm
15:26 85.5 °F /  29.7 °C 65.3 °F /  18.5 °C 29.91 in /  1012.8 hPa West 10.1 mph /  16.3 km/h 15.0 mph /  24.1 km/h 51 % 0.00 in /  0 mm
15:31 85.5 °F /  29.7 °C 65.3 °F /  18.5 °C 29.90 in /  1012.4 hPa SW 8.8 mph /  14.2 km/h 10.4 mph /  16.7 km/h 51 % 0.00 in /  0 mm
15:37 85.6 °F /  29.8 °C 65.4 °F /  18.6 °C 29.89 in /  1012.1 hPa WSW 9.5 mph /  15.3 km/h 17.3 mph /  27.8 km/h 51 % 0.00 in /  0 mm
15:42 85.5 °F /  29.7 °C 64.2 °F /  17.9 °C 29.90 in /  1012.4 hPa WNW 8.6 mph /  13.8 km/h 16.1 mph /  25.9 km/h 49 % 0.00 in /  0 mm
15:47 85.4 °F /  29.7 °C 64.1 °F /  17.8 °C 29.90 in /  1012.4 hPa WNW 6.3 mph /  10.1 km/h 13.8 mph /  22.2 km/h 49 % 0.00 in /  0 mm
15:48 85.4 °F /  29.7 °C 65.2 °F /  18.4 °C 29.90 in /  1012.4 hPa WNW 5.9 mph /  9.5 km/h 8.0 mph /  12.9 km/h 51 % 0.00 in /  0 mm
15:54 85.5 °F /  29.7 °C 64.7 °F /  18.2 °C 29.90 in /  1012.4 hPa West 6.8 mph /  10.9 km/h 11.5 mph /  18.5 km/h 50 % 0.00 in /  0 mm
15:59 85.4 °F /  29.7 °C 64.6 °F /  18.1 °C 29.90 in /  1012.4 hPa WSW 4.9 mph /  7.9 km/h 11.5 mph /  18.5 km/h 50 % 0.00 in /  0 mm
16:04 85.2 °F /  29.6 °C 63.9 °F /  17.7 °C 29.90 in /  1012.4 hPa SSW 7.9 mph /  12.7 km/h 17.3 mph /  27.8 km/h 49 % 0.00 in /  0 mm
16:09 84.8 °F /  29.3 °C 63.5 °F /  17.5 °C 29.90 in /  1012.4 hPa West 6.6 mph /  10.6 km/h 11.5 mph /  18.5 km/h 49 % 0.00 in /  0 mm
16:14 84.7 °F /  29.3 °C 64.0 °F /  17.8 °C 29.90 in /  1012.4 hPa WSW 3.6 mph /  5.8 km/h 9.2 mph /  14.8 km/h 50 % 0.00 in /  0 mm
16:19 84.7 °F /  29.3 °C 63.4 °F /  17.4 °C 29.90 in /  1012.4 hPa WSW 5.9 mph /  9.5 km/h 11.5 mph /  18.5 km/h 49 % 0.00 in /  0 mm
16:24 84.4 °F /  29.1 °C 63.7 °F /  17.6 °C 29.90 in /  1012.4 hPa SW 6.9 mph /  11.1 km/h 11.5 mph /  18.5 km/h 50 % 0.00 in /  0 mm
16:29 84.3 °F /  29.1 °C 64.2 °F /  17.9 °C 29.91 in /  1012.8 hPa West 4.0 mph /  6.4 km/h 9.2 mph /  14.8 km/h 51 % 0.00 in /  0 mm
16:34 84.1 °F /  28.9 °C 63.5 °F /  17.5 °C 29.92 in /  1013.1 hPa SSW 6.6 mph /  10.6 km/h 10.4 mph /  16.7 km/h 50 % 0.00 in /  0 mm
16:39 83.9 °F /  28.8 °C 63.8 °F /  17.7 °C 29.92 in /  1013.1 hPa WSW 5.8 mph /  9.3 km/h 9.0 mph /  14.5 km/h 51 % 0.00 in /  0 mm
16:44 83.8 °F /  28.8 °C 63.7 °F /  17.6 °C 29.92 in /  1013.1 hPa WSW 4.8 mph /  7.7 km/h 6.9 mph /  11.1 km/h 51 % 0.00 in /  0 mm
16:49 83.6 °F /  28.7 °C 64.1 °F /  17.8 °C 29.92 in /  1013.1 hPa SW 2.6 mph /  4.2 km/h 6.9 mph /  11.1 km/h 52 % 0.00 in /  0 mm
16:54 83.4 °F /  28.6 °C 63.9 °F /  17.7 °C 29.92 in /  1013.1 hPa ENE 4.5 mph /  7.2 km/h 9.2 mph /  14.8 km/h 52 % 0.00 in /  0 mm
16:59 83.2 °F /  28.4 °C 64.3 °F /  17.9 °C 29.92 in /  1013.1 hPa WNW 5.2 mph /  8.4 km/h 11.5 mph /  18.5 km/h 53 % 0.00 in /  0 mm
17:04 83.1 °F /  28.4 °C 64.7 °F /  18.2 °C 29.92 in /  1013.1 hPa SW 1.7 mph /  2.7 km/h 3.5 mph /  5.6 km/h 54 % 0.00 in /  0 mm
17:10 83.2 °F /  28.4 °C 64.8 °F /  18.2 °C 29.92 in /  1013.1 hPa SW 2.5 mph /  4 km/h 4.0 mph /  6.4 km/h 54 % 0.00 in /  0 mm
17:15 83.2 °F /  28.4 °C 64.3 °F /  17.9 °C 29.92 in /  1013.1 hPa WSW 1.7 mph /  2.7 km/h 9.2 mph /  14.8 km/h 53 % 0.00 in /  0 mm
17:20 83.2 °F /  28.4 °C 64.3 °F /  17.9 °C 29.92 in /  1013.1 hPa SSW 2.7 mph /  4.3 km/h 4.6 mph /  7.4 km/h 53 % 0.00 in /  0 mm
17:25 83.1 °F /  28.4 °C 64.2 °F /  17.9 °C 29.92 in /  1013.1 hPa WSW 2.2 mph /  3.5 km/h 10.4 mph /  16.7 km/h 53 % 0.00 in /  0 mm
17:30 82.8 °F /  28.2 °C 63.9 °F /  17.7 °C 29.93 in /  1013.4 hPa SW 5.0 mph /  8 km/h 7.0 mph /  11.3 km/h 53 % 0.00 in /  0 mm
17:35 82.5 °F /  28.1 °C 63.6 °F /  17.6 °C 29.93 in /  1013.4 hPa WSW 2.7 mph /  4.3 km/h 4.6 mph /  7.4 km/h 53 % 0.00 in /  0 mm
17:40 82.3 °F /  27.9 °C 64.5 °F /  18.1 °C 29.93 in /  1013.4 hPa West 2.4 mph /  3.9 km/h 4.6 mph /  7.4 km/h 55 % 0.00 in /  0 mm
17:45 82.2 °F /  27.9 °C 63.9 °F /  17.7 °C 29.93 in /  1013.4 hPa WNW 3.6 mph /  5.8 km/h 8.1 mph /  13 km/h 54 % 0.00 in /  0 mm
17:50 82.1 °F /  27.8 °C 63.8 °F /  17.7 °C 29.92 in /  1013.1 hPa WSW 3.6 mph /  5.8 km/h 9.2 mph /  14.8 km/h 54 % 0.00 in /  0 mm
17:55 81.9 °F /  27.7 °C 62.5 °F /  16.9 °C 29.92 in /  1013.1 hPa NW 3.7 mph /  6 km/h 6.0 mph /  9.7 km/h 52 % 0.00 in /  0 mm
18:01 81.6 °F /  27.6 °C 62.3 °F /  16.8 °C 29.91 in /  1012.8 hPa WNW 4.3 mph /  6.9 km/h 7.0 mph /  11.3 km/h 52 % 0.00 in /  0 mm
18:06 81.3 °F /  27.4 °C 62.0 °F /  16.7 °C 29.91 in /  1012.8 hPa West 3.0 mph /  4.8 km/h 7.0 mph /  11.3 km/h 52 % 0.00 in /  0 mm
18:11 81.0 °F /  27.2 °C 62.3 °F /  16.8 °C 29.91 in /  1012.8 hPa WNW 2.9 mph /  4.7 km/h 5.8 mph /  9.3 km/h 53 % 0.00 in /  0 mm
18:16 80.5 °F /  26.9 °C 61.8 °F /  16.6 °C 29.91 in /  1012.8 hPa West 5.5 mph /  8.9 km/h 9.2 mph /  14.8 km/h 53 % 0.00 in /  0 mm
18:21 80.2 °F /  26.8 °C 61.5 °F /  16.4 °C 29.91 in /  1012.8 hPa West 6.0 mph /  9.7 km/h 12.0 mph /  19.3 km/h 53 % 0.00 in /  0 mm
18:26 80.0 °F /  26.7 °C 61.8 °F /  16.6 °C 29.92 in /  1013.1 hPa WNW 5.0 mph /  8 km/h 12.0 mph /  19.3 km/h 54 % 0.00 in /  0 mm
18:31 79.7 °F /  26.5 °C 61.0 °F /  16.1 °C 29.92 in /  1013.1 hPa WNW 2.0 mph /  3.2 km/h 9.0 mph /  14.5 km/h 53 % 0.00 in /  0 mm
18:36 79.3 °F /  26.3 °C 60.7 °F /  15.9 °C 29.92 in /  1013.1 hPa WNW 3.6 mph /  5.8 km/h 10.4 mph /  16.7 km/h 53 % 0.00 in /  0 mm
18:41 78.9 °F /  26.1 °C 60.9 °F /  16.1 °C 29.92 in /  1013.1 hPa WNW 5.0 mph /  8 km/h 12.0 mph /  19.3 km/h 54 % 0.00 in /  0 mm
18:46 78.6 °F /  25.9 °C 61.1 °F /  16.2 °C 29.91 in /  1012.8 hPa WNW 3.0 mph /  4.8 km/h 12.0 mph /  19.3 km/h 55 % 0.00 in /  0 mm
18:51 78.4 °F /  25.8 °C 60.9 °F /  16.1 °C 29.91 in /  1012.8 hPa WNW 3.0 mph /  4.8 km/h 10.0 mph /  16.1 km/h 55 % 0.00 in /  0 mm
18:56 78.0 °F /  25.6 °C 61.1 °F /  16.2 °C 29.91 in /  1012.8 hPa WNW 3.0 mph /  4.8 km/h 12.0 mph /  19.3 km/h 56 % 0.00 in /  0 mm
19:01 77.8 °F /  25.4 °C 61.3 °F /  16.3 °C 29.92 in /  1013.1 hPa WNW 4.0 mph /  6.4 km/h 12.0 mph /  19.3 km/h 57 % 0.00 in /  0 mm
19:06 77.6 °F /  25.3 °C 61.2 °F /  16.2 °C 29.92 in /  1013.1 hPa West 4.6 mph /  7.4 km/h 8.1 mph /  13 km/h 57 % 0.00 in /  0 mm
19:11 77.4 °F /  25.2 °C 61.0 °F /  16.1 °C 29.92 in /  1013.1 hPa NW 5.1 mph /  8.2 km/h 11.5 mph /  18.5 km/h 57 % 0.00 in /  0 mm
19:16 77.1 °F /  25.1 °C 61.2 °F /  16.2 °C 29.93 in /  1013.4 hPa NNW 4.7 mph /  7.6 km/h 9.2 mph /  14.8 km/h 58 % 0.00 in /  0 mm
19:21 76.9 °F /  24.9 °C 61.0 °F /  16.1 °C 29.93 in /  1013.4 hPa West 5.8 mph /  9.3 km/h 8.1 mph /  13 km/h 58 % 0.00 in /  0 mm
19:26 76.7 °F /  24.8 °C 60.8 °F /  16 °C 29.93 in /  1013.4 hPa WNW 2.4 mph /  3.9 km/h 4.6 mph /  7.4 km/h 58 % 0.00 in /  0 mm
19:31 76.5 °F /  24.7 °C 61.1 °F /  16.2 °C 29.93 in /  1013.4 hPa West 3.2 mph /  5.1 km/h 4.6 mph /  7.4 km/h 59 % 0.00 in /  0 mm
19:36 76.3 °F /  24.6 °C 60.9 °F /  16.1 °C 29.93 in /  1013.4 hPa West 3.3 mph /  5.3 km/h 4.6 mph /  7.4 km/h 59 % 0.00 in /  0 mm
19:41 76.2 °F /  24.6 °C 61.3 °F /  16.3 °C 29.94 in /  1013.8 hPa NW 3.5 mph /  5.6 km/h 6.9 mph /  11.1 km/h 60 % 0.00 in /  0 mm
19:46 76.1 °F /  24.5 °C 61.2 °F /  16.2 °C 29.94 in /  1013.8 hPa West 2.4 mph /  3.9 km/h 7.0 mph /  11.3 km/h 60 % 0.00 in /  0 mm
19:51 76.0 °F /  24.4 °C 61.1 °F /  16.2 °C 29.95 in /  1014.1 hPa WNW 0.8 mph /  1.3 km/h 3.5 mph /  5.6 km/h 60 % 0.00 in /  0 mm
19:57 75.8 °F /  24.3 °C 60.9 °F /  16.1 °C 29.95 in /  1014.1 hPa WSW 3.7 mph /  6 km/h 5.8 mph /  9.3 km/h 60 % 0.00 in /  0 mm
20:02 75.7 °F /  24.3 °C 61.3 °F /  16.3 °C 29.96 in /  1014.4 hPa Calm   3.5 mph /  5.6 km/h 61 % 0.00 in /  0 mm
20:07 75.5 °F /  24.2 °C 61.1 °F /  16.2 °C 29.95 in /  1014.1 hPa West 0.3 mph /  0.5 km/h 3.5 mph /  5.6 km/h 61 % 0.00 in /  0 mm
20:12 75.4 °F /  24.1 °C 61.0 °F /  16.1 °C 29.96 in /  1014.4 hPa West 1.7 mph /  2.7 km/h 6.9 mph /  11.1 km/h 61 % 0.00 in /  0 mm
20:17 75.2 °F /  24 °C 60.8 °F /  16 °C 29.96 in /  1014.4 hPa WNW 1.1 mph /  1.8 km/h 3.5 mph /  5.6 km/h 61 % 0.00 in /  0 mm
20:22 75.1 °F /  23.9 °C 60.7 °F /  15.9 °C 29.97 in /  1014.8 hPa West 4.8 mph /  7.7 km/h 9.2 mph /  14.8 km/h 61 % 0.00 in /  0 mm
20:27 75.1 °F /  23.9 °C 60.7 °F /  15.9 °C 29.98 in /  1015.1 hPa West 2.0 mph /  3.2 km/h 4.0 mph /  6.4 km/h 61 % 0.00 in /  0 mm
20:32 75.0 °F /  23.9 °C 60.6 °F /  15.9 °C 29.98 in /  1015.1 hPa WNW 2.2 mph /  3.5 km/h 4.0 mph /  6.4 km/h 61 % 0.00 in /  0 mm
20:37 74.9 °F /  23.8 °C 61.0 °F /  16.1 °C 29.98 in /  1015.1 hPa WNW 4.4 mph /  7.1 km/h 8.1 mph /  13 km/h 62 % 0.00 in /  0 mm
20:42 74.8 °F /  23.8 °C 60.9 °F /  16.1 °C 29.98 in /  1015.1 hPa WNW 4.0 mph /  6.4 km/h 8.1 mph /  13 km/h 62 % 0.00 in /  0 mm
20:47 74.7 °F /  23.7 °C 60.4 °F /  15.8 °C 29.99 in /  1015.5 hPa WSW 3.8 mph /  6.1 km/h 5.8 mph /  9.3 km/h 61 % 0.00 in /  0 mm
20:52 74.6 °F /  23.7 °C 60.3 °F /  15.7 °C 29.99 in /  1015.5 hPa West 3.0 mph /  4.8 km/h 4.6 mph /  7.4 km/h 61 % 0.00 in /  0 mm
20:58 74.5 °F /  23.6 °C 60.2 °F /  15.7 °C 30.00 in /  1015.8 hPa WNW 4.6 mph /  7.4 km/h 9.0 mph /  14.5 km/h 61 % 0.00 in /  0 mm
21:03 74.4 °F /  23.6 °C 60.1 °F /  15.6 °C 30.00 in /  1015.8 hPa NW 4.6 mph /  7.4 km/h 8.1 mph /  13 km/h 61 % 0.00 in /  0 mm
21:08 74.2 °F /  23.4 °C 59.9 °F /  15.5 °C 30.00 in /  1015.8 hPa WNW 3.8 mph /  6.1 km/h 9.2 mph /  14.8 km/h 61 % 0.00 in /  0 mm
21:13 74.0 °F /  23.3 °C 60.2 °F /  15.7 °C 30.01 in /  1016.1 hPa NNW 0.1 mph /  0.2 km/h 1.2 mph /  1.9 km/h 62 % 0.00 in /  0 mm
21:18 73.8 °F /  23.2 °C 60.0 °F /  15.6 °C 30.02 in /  1016.5 hPa WNW 1.5 mph /  2.4 km/h 3.5 mph /  5.6 km/h 62 % 0.00 in /  0 mm
21:23 73.3 °F /  22.9 °C 59.0 °F /  15 °C 30.02 in /  1016.5 hPa West 5.2 mph /  8.4 km/h 12.7 mph /  20.4 km/h 61 % 0.00 in /  0 mm
21:28 72.7 °F /  22.6 °C 58.9 °F /  14.9 °C 30.02 in /  1016.5 hPa WNW 5.6 mph /  9 km/h 8.1 mph /  13 km/h 62 % 0.00 in /  0 mm
21:33 72.2 °F /  22.3 °C 58.0 °F /  14.4 °C 30.02 in /  1016.5 hPa West 5.5 mph /  8.9 km/h 11.5 mph /  18.5 km/h 61 % 0.00 in /  0 mm
21:38 71.8 °F /  22.1 °C 58.1 °F /  14.5 °C 30.03 in /  1016.8 hPa WNW 2.5 mph /  4 km/h 6.9 mph /  11.1 km/h 62 % 0.00 in /  0 mm
21:43 71.2 °F /  21.8 °C 57.5 °F /  14.2 °C 30.04 in /  1017.2 hPa North 2.7 mph /  4.3 km/h 4.6 mph /  7.4 km/h 62 % 0.00 in /  0 mm
21:49 70.5 °F /  21.4 °C 57.3 °F /  14.1 °C 30.04 in /  1017.2 hPa NNW 2.6 mph /  4.2 km/h 11.5 mph /  18.5 km/h 63 % 0.00 in /  0 mm
21:54 69.8 °F /  21 °C 57.1 °F /  13.9 °C 30.04 in /  1017.2 hPa NW 2.0 mph /  3.2 km/h 7.0 mph /  11.3 km/h 64 % 0.00 in /  0 mm
21:59 69.3 °F /  20.7 °C 57.0 °F /  13.9 °C 30.05 in /  1017.5 hPa NW 3.7 mph /  6 km/h 6.9 mph /  11.1 km/h 65 % 0.00 in /  0 mm
22:04 68.7 °F /  20.4 °C 56.9 °F /  13.8 °C 30.05 in /  1017.5 hPa NW 5.5 mph /  8.9 km/h 11.5 mph /  18.5 km/h 66 % 0.00 in /  0 mm
22:09 68.3 °F /  20.2 °C 56.5 °F /  13.6 °C 30.05 in /  1017.5 hPa West 5.6 mph /  9 km/h 9.2 mph /  14.8 km/h 66 % 0.00 in /  0 mm
22:14 68.0 °F /  20 °C 56.6 °F /  13.7 °C 30.05 in /  1017.5 hPa WNW 5.7 mph /  9.2 km/h 12.0 mph /  19.3 km/h 67 % 0.00 in /  0 mm
22:19 67.9 °F /  19.9 °C 56.5 °F /  13.6 °C 30.05 in /  1017.5 hPa WNW 5.6 mph /  9 km/h 12.7 mph /  20.4 km/h 67 % 0.00 in /  0 mm
22:24 67.8 °F /  19.9 °C 56.4 °F /  13.6 °C 30.05 in /  1017.5 hPa WNW 3.0 mph /  4.8 km/h 4.0 mph /  6.4 km/h 67 % 0.00 in /  0 mm
22:29 67.8 °F /  19.9 °C 56.4 °F /  13.6 °C 30.05 in /  1017.5 hPa WNW 2.9 mph /  4.7 km/h 9.2 mph /  14.8 km/h 67 % 0.00 in /  0 mm
22:31 67.8 °F /  19.9 °C 56.4 °F /  13.6 °C 30.05 in /  1017.5 hPa SSW 4.7 mph /  7.6 km/h 6.9 mph /  11.1 km/h 67 % 0.00 in /  0 mm
22:36 67.8 °F /  19.9 °C 56.9 °F /  13.8 °C 30.05 in /  1017.5 hPa West 3.7 mph /  6 km/h 8.0 mph /  12.9 km/h 68 % 0.00 in /  0 mm
22:41 67.7 °F /  19.8 °C 56.3 °F /  13.5 °C 30.05 in /  1017.5 hPa West 3.1 mph /  5 km/h 6.9 mph /  11.1 km/h 67 % 0.00 in /  0 mm
22:46 67.7 °F /  19.8 °C 56.8 °F /  13.8 °C 30.05 in /  1017.5 hPa WNW 0.8 mph /  1.3 km/h 4.0 mph /  6.4 km/h 68 % 0.00 in /  0 mm
22:51 67.6 °F /  19.8 °C 56.7 °F /  13.7 °C 30.06 in /  1017.8 hPa West 3.0 mph /  4.8 km/h 5.8 mph /  9.3 km/h 68 % 0.00 in /  0 mm
22:56 67.6 °F /  19.8 °C 56.7 °F /  13.7 °C 30.05 in /  1017.5 hPa West 0.1 mph /  0.2 km/h 4.6 mph /  7.4 km/h 68 % 0.00 in /  0 mm
23:02 67.6 °F /  19.8 °C 56.7 °F /  13.7 °C 30.05 in /  1017.5 hPa WNW 0.9 mph /  1.4 km/h 3.5 mph /  5.6 km/h 68 % 0.00 in /  0 mm
23:07 67.6 °F /  19.8 °C 56.7 °F /  13.7 °C 30.05 in /  1017.5 hPa West 3.4 mph /  5.5 km/h 8.1 mph /  13 km/h 68 % 0.00 in /  0 mm
23:12 67.6 °F /  19.8 °C 57.1 °F /  13.9 °C 30.05 in /  1017.5 hPa West 3.2 mph /  5.1 km/h 5.8 mph /  9.3 km/h 69 % 0.00 in /  0 mm
23:17 67.5 °F /  19.7 °C 57.0 °F /  13.9 °C 30.06 in /  1017.8 hPa West 1.0 mph /  1.6 km/h 5.0 mph /  8 km/h 69 % 0.00 in /  0 mm
23:22 67.5 °F /  19.7 °C 56.6 °F /  13.7 °C 30.06 in /  1017.8 hPa West 3.0 mph /  4.8 km/h 5.8 mph /  9.3 km/h 68 % 0.00 in /  0 mm
23:27 67.5 °F /  19.7 °C 56.6 °F /  13.7 °C 30.05 in /  1017.5 hPa WNW 3.9 mph /  6.3 km/h 6.9 mph /  11.1 km/h 68 % 0.00 in /  0 mm
23:28 67.5 °F /  19.7 °C 56.6 °F /  13.7 °C 30.06 in /  1017.8 hPa NW 3.7 mph /  6 km/h 8.1 mph /  13 km/h 68 % 0.00 in /  0 mm
23:33 67.4 °F /  19.7 °C 56.9 °F /  13.8 °C 30.05 in /  1017.5 hPa WNW 3.9 mph /  6.3 km/h 8.0 mph /  12.9 km/h 69 % 0.00 in /  0 mm
23:38 67.4 °F /  19.7 °C 56.9 °F /  13.8 °C 30.06 in /  1017.8 hPa WNW 2.4 mph /  3.9 km/h 4.6 mph /  7.4 km/h 69 % 0.00 in /  0 mm
23:43 67.4 °F /  19.7 °C 56.9 °F /  13.8 °C 30.06 in /  1017.8 hPa WNW 2.2 mph /  3.5 km/h 4.0 mph /  6.4 km/h 69 % 0.00 in /  0 mm
23:48 67.3 °F /  19.6 °C 56.8 °F /  13.8 °C 30.06 in /  1017.8 hPa WNW 2.9 mph /  4.7 km/h 6.9 mph /  11.1 km/h 69 % 0.00 in /  0 mm
23:53 67.2 °F /  19.6 °C 56.7 °F /  13.7 °C 30.06 in /  1017.8 hPa West 2.5 mph /  4 km/h 4.6 mph /  7.4 km/h 69 % 0.00 in /  0 mm
23:59 67.2 °F /  19.6 °C 56.7 °F /  13.7 °C 30.07 in /  1018.2 hPa WNW 4.3 mph /  6.9 km/h 8.1 mph /  13 km/h 69 % 0.00 in /  0 mm
Crab Meadow Weather
Compliments of Weather Underground - 3 mb

Script developed by  Jim McMurry - jmcmurry@mwt.net Adapted for the template by  Wim van der Kuil - Leuven-Template.eu

Recycling: Americans use 2,500,000 plastic bottles every hour! Most of them are thrown away!